หน้าหลัก
METAR-TAF:

METAR-TAF

ท่าอากาศยาน :

Skelton Airport

Eureka, อะแลสกา, สหรัฐอเมริกา

ละติจูด: 61-56N, ลองจิจูด: 147-10W, ความสูง: 1002 ม.

การสังเกตสภาพอากาศปัจจุบัน

รายงานได้ทำขึ้นเมื่อ 1 ชั่วโมงและ 9 นาทีที่แล้ว ณ เวลา 21:56 UTC
ลมสงบ
อุณหภูมิ 8°C
ความชื้น 53%
ความกดอากาศ 1002 hPa
ทัศนวิสัย: 16.1 กม.
มีเมฆมาก มืดครึ้มที่ความสูง 4100 ฟุต

METAR: PAZK 242156Z AUTO 00000KT 10SM OVC041 08/M01 A2958 RMK AO2 SLP049 T00831011 $

เวลา: 15:05 (23:05 UTC)


TAF: หายไป

สังเกตการณ์สภาพอากาศและพยากรณ์อากาศของสนามบินมากกว่า 4000 แห่ง (รายงาน METAR และ TAF).

สถานีที่ดูได้จะแสดงไว้ด้วยจุดสีเหลืองและสีแดงบนแผนที่.

เลื่อนเมาส์ไปเหนือจุดเพื่อดูชื่อสถานี.

แล้วคลิกเพื่อดูสังเกตการณ์และการพยากรณ์สภาพอากาศ.

ในการเปลี่ยนแผนที่: คลิกที่ปุ่มสีเขียวที่มีกากบาทสีดำเพื่อซูมเข้า; ที่ปุ่มสีเขียวที่มีขีดเพื่อซูมออก; หรือที่ลูกศรสีเขียวเพื่อไปยังแผนที่ที่อยู่ติดกัน.


METAR-TAF: